createdAt,value
2022-09-28T00:01:14.351Z,11.80
2022-09-28T00:03:41.439Z,11.80
2022-09-28T00:06:12.376Z,11.80
2022-09-28T00:08:39.611Z,11.80
2022-09-28T00:11:08.751Z,11.80
2022-09-28T00:13:35.799Z,11.80
2022-09-28T00:16:09.526Z,11.70
2022-09-28T00:18:36.575Z,11.70
2022-09-28T00:21:08.167Z,11.70
2022-09-28T00:23:56.393Z,11.70
2022-09-28T00:26:24.302Z,11.70
2022-09-28T00:28:55.894Z,11.70
2022-09-28T00:31:25.201Z,11.70
2022-09-28T00:33:56.992Z,11.70
2022-09-28T00:36:27.048Z,11.70
2022-09-28T00:38:58.134Z,11.70
2022-09-28T00:41:27.147Z,11.70
2022-09-28T00:44:15.207Z,11.70
2022-09-28T00:46:42.384Z,11.70
2022-09-28T00:49:15.059Z,11.70
2022-09-28T00:51:43.591Z,11.70
2022-09-28T00:54:12.098Z,11.70
2022-09-28T00:56:43.262Z,11.70
2022-09-28T00:59:10.973Z,11.60
2022-09-28T01:01:38.090Z,11.60
2022-09-28T01:04:06.130Z,11.60
2022-09-28T01:06:36.214Z,11.60
2022-09-28T01:09:07.671Z,11.60
2022-09-28T01:11:38.594Z,11.60
2022-09-28T01:14:10.117Z,11.60
2022-09-28T01:16:58.922Z,11.60
2022-09-28T01:19:58.587Z,11.60
2022-09-28T01:23:00.902Z,11.50
2022-09-28T01:25:39.223Z,11.50
2022-09-28T01:28:09.764Z,11.50
2022-09-28T01:30:47.358Z,11.50
2022-09-28T01:33:22.294Z,11.50
2022-09-28T01:36:12.887Z,11.50
2022-09-28T01:38:46.282Z,11.50
2022-09-28T01:41:17.503Z,11.50
2022-09-28T01:43:52.313Z,11.50
2022-09-28T01:46:23.709Z,11.40
2022-09-28T01:48:56.530Z,11.50
2022-09-28T01:51:45.013Z,11.50
2022-09-28T01:54:15.121Z,11.60
2022-09-28T01:57:03.174Z,11.50
2022-09-28T01:59:33.204Z,11.50
2022-09-28T02:02:22.569Z,11.50
2022-09-28T02:04:57.769Z,11.50
2022-09-28T02:07:54.773Z,11.50
2022-09-28T02:10:31.048Z,11.50
2022-09-28T02:13:28.128Z,11.50
2022-09-28T02:16:03.540Z,11.50
2022-09-28T02:18:30.778Z,11.50
2022-09-28T02:21:15.986Z,11.50
2022-09-28T02:23:58.213Z,11.40
2022-09-28T02:26:29.703Z,11.30
2022-09-28T02:28:56.808Z,11.40
2022-09-28T02:31:23.850Z,11.30
2022-09-28T02:33:53.463Z,11.30
2022-09-28T02:36:20.580Z,11.30
2022-09-28T02:38:47.537Z,11.40
2022-09-28T02:41:33.201Z,11.40
2022-09-28T02:44:15.071Z,11.40
2022-09-28T02:46:51.299Z,11.30
2022-09-28T02:49:31.274Z,11.30
2022-09-28T02:52:37.487Z,11.30
2022-09-28T02:55:45.612Z,11.30
2022-09-28T02:58:43.014Z,11.30
2022-09-28T03:01:21.738Z,11.20
2022-09-28T03:03:53.268Z,11.30
2022-09-28T03:06:30.874Z,11.20
2022-09-28T03:09:14.239Z,11.20
2022-09-28T03:11:49.938Z,11.20
2022-09-28T03:14:17.996Z,11.20
2022-09-28T03:16:45.978Z,11.20
2022-09-28T03:19:14.311Z,11.20
2022-09-28T03:21:41.434Z,11.20
2022-09-28T03:24:11.171Z,11.20
2022-09-28T03:26:41.536Z,11.20
2022-09-28T03:29:08.470Z,11.20
2022-09-28T03:31:35.537Z,11.20
2022-09-28T03:34:02.604Z,11.20
2022-09-28T03:36:29.625Z,11.20
2022-09-28T03:38:56.763Z,11.20
2022-09-28T03:41:30.212Z,11.20
2022-09-28T03:43:57.136Z,11.20
2022-09-28T03:46:24.148Z,11.10
2022-09-28T03:48:51.199Z,11.10
2022-09-28T03:51:18.152Z,11.10
2022-09-28T03:53:45.095Z,11.10
2022-09-28T03:56:14.854Z,11.10
2022-09-28T03:58:42.239Z,11.10
2022-09-28T04:01:17.699Z,11.10
2022-09-28T04:03:45.907Z,11.10
2022-09-28T04:06:13.955Z,11.10
2022-09-28T04:08:40.935Z,11.10
2022-09-28T04:11:07.880Z,11.10
2022-09-28T04:13:34.850Z,11.10
2022-09-28T04:16:02.244Z,11.10
2022-09-28T04:18:29.652Z,11.10
2022-09-28T04:21:09.009Z,11.10
2022-09-28T04:23:38.141Z,11.10
2022-09-28T04:26:07.148Z,11.10
2022-09-28T04:28:52.998Z,11.10
2022-09-28T04:31:23.128Z,11.10
2022-09-28T04:33:50.139Z,11.10
2022-09-28T04:36:20.069Z,11.10
2022-09-28T04:38:54.225Z,11.10
2022-09-28T04:41:25.265Z,11.10
2022-09-28T04:43:52.723Z,11.00
2022-09-28T04:46:20.295Z,11.00
2022-09-28T04:48:47.366Z,11.00
2022-09-28T04:51:14.472Z,11.10
2022-09-28T04:53:41.468Z,11.00
2022-09-28T04:56:13.977Z,11.10
2022-09-28T04:58:42.041Z,11.10
2022-09-28T05:01:12.941Z,11.00
2022-09-28T05:03:40.132Z,11.10
2022-09-28T05:06:07.844Z,11.10
2022-09-28T05:08:35.746Z,11.10
2022-09-28T05:11:05.659Z,11.10
2022-09-28T05:13:35.789Z,11.10
2022-09-28T05:16:05.399Z,11.10
2022-09-28T05:18:32.838Z,11.10
2022-09-28T05:20:59.890Z,11.10
2022-09-28T05:23:26.840Z,11.10
2022-09-28T05:25:53.991Z,11.10
2022-09-28T05:28:26.290Z,11.10
2022-09-28T05:30:53.456Z,11.10
2022-09-28T05:33:20.568Z,11.10
2022-09-28T05:35:52.478Z,11.10
2022-09-28T05:38:20.896Z,11.10
2022-09-28T05:40:47.923Z,11.10
2022-09-28T05:43:15.213Z,11.10
2022-09-28T05:45:42.282Z,11.10
2022-09-28T05:48:09.452Z,11.20
2022-09-28T05:50:36.549Z,11.20
2022-09-28T05:53:06.922Z,11.20
2022-09-28T05:55:34.925Z,11.20
2022-09-28T05:58:04.230Z,11.20
2022-09-28T06:00:32.813Z,11.10
2022-09-28T06:03:03.423Z,11.20
2022-09-28T06:05:36.312Z,11.20
2022-09-28T06:08:05.375Z,11.20
2022-09-28T06:10:34.022Z,11.30
2022-09-28T06:13:01.430Z,11.20
2022-09-28T06:15:31.010Z,11.30
2022-09-28T06:18:14.935Z,11.20
2022-09-28T06:20:42.815Z,11.20
2022-09-28T06:23:11.466Z,11.30
2022-09-28T06:25:38.990Z,11.30
2022-09-28T06:28:09.711Z,11.30
2022-09-28T06:30:39.129Z,11.30
2022-09-28T06:33:08.366Z,11.20
2022-09-28T06:35:35.360Z,11.20
2022-09-28T06:38:02.689Z,11.20
2022-09-28T06:40:29.703Z,11.20
2022-09-28T06:42:59.637Z,11.30
2022-09-28T06:45:28.514Z,11.20
2022-09-28T06:47:58.441Z,11.30
2022-09-28T06:50:37.512Z,11.30
2022-09-28T06:53:06.857Z,11.30
2022-09-28T06:55:34.097Z,11.30
2022-09-28T06:58:06.496Z,11.30
2022-09-28T07:00:35.597Z,11.40
2022-09-28T07:03:04.467Z,11.50
2022-09-28T07:05:35.040Z,11.40
2022-09-28T07:08:03.026Z,11.40
2022-09-28T07:10:30.946Z,11.40
2022-09-28T07:13:02.621Z,11.40
2022-09-28T07:15:29.759Z,11.40
2022-09-28T07:18:03.345Z,11.40
2022-09-28T07:20:31.724Z,11.50
2022-09-28T07:23:12.751Z,11.50
2022-09-28T07:25:49.628Z,11.50
2022-09-28T07:28:17.473Z,11.50
2022-09-28T07:30:44.853Z,11.50
2022-09-28T07:33:15.069Z,11.50
2022-09-28T07:35:50.751Z,11.50
2022-09-28T07:38:18.024Z,11.50
2022-09-28T07:41:03.501Z,11.50
2022-09-28T07:43:30.491Z,11.50
2022-09-28T07:45:58.271Z,11.50
2022-09-28T07:48:25.396Z,11.50
2022-09-28T07:50:57.444Z,11.60
2022-09-28T07:53:25.895Z,11.60
2022-09-28T07:56:05.128Z,11.60
2022-09-28T07:58:34.861Z,11.60
2022-09-28T08:01:13.049Z,11.60
2022-09-28T08:03:40.188Z,11.50
2022-09-28T08:06:09.930Z,11.60
2022-09-28T08:08:37.928Z,11.70
2022-09-28T08:11:07.215Z,11.70
2022-09-28T08:13:34.163Z,11.80
2022-09-28T08:16:02.227Z,11.90
2022-09-28T08:18:29.691Z,12.00
2022-09-28T08:21:15.296Z,12.10
2022-09-28T08:23:42.301Z,12.10
2022-09-28T08:26:14.623Z,12.20
2022-09-28T08:28:43.533Z,12.20
2022-09-28T08:31:10.678Z,12.30
2022-09-28T08:33:37.735Z,12.40
2022-09-28T08:36:06.111Z,12.70
2022-09-28T08:38:33.374Z,12.90
2022-09-28T08:41:07.512Z,13.10
2022-09-28T08:43:40.204Z,13.40
2022-09-28T08:46:09.380Z,13.60
2022-09-28T08:48:56.315Z,13.70
2022-09-28T08:51:33.752Z,13.60
2022-09-28T08:54:11.043Z,13.70
2022-09-28T08:56:47.615Z,13.60
2022-09-28T08:59:28.847Z,13.80
2022-09-28T09:01:59.716Z,14.30
2022-09-28T09:04:27.178Z,15.00
2022-09-28T09:07:24.408Z,15.80
2022-09-28T09:10:09.936Z,16.10
2022-09-28T09:12:59.921Z,15.80
2022-09-28T09:16:01.362Z,15.30
2022-09-28T09:18:47.504Z,15.00
2022-09-28T09:21:19.542Z,14.90
2022-09-28T09:23:53.161Z,14.90
2022-09-28T09:26:26.104Z,15.00
2022-09-28T09:29:21.058Z,14.90
2022-09-28T09:32:04.440Z,14.80
2022-09-28T09:35:00.125Z,14.70
2022-09-28T09:37:38.919Z,14.60
2022-09-28T09:40:30.504Z,14.50
2022-09-28T09:43:20.632Z,14.50
2022-09-28T09:46:02.320Z,14.90
2022-09-28T09:49:00.421Z,15.50
2022-09-28T09:52:11.766Z,15.70
2022-09-28T09:54:54.332Z,15.60
2022-09-28T09:57:34.912Z,15.60
2022-09-28T10:00:04.245Z,15.60
2022-09-28T10:02:34.801Z,15.50
2022-09-28T10:05:11.060Z,15.40
2022-09-28T10:07:47.413Z,15.20
2022-09-28T10:10:33.363Z,15.20
2022-09-28T10:13:01.766Z,14.90
2022-09-28T10:15:34.097Z,15.00
2022-09-28T10:18:10.443Z,14.90
2022-09-28T10:20:42.963Z,14.40
2022-09-28T10:23:26.641Z,14.00
2022-09-28T10:25:59.818Z,13.80
2022-09-28T10:28:36.425Z,14.00
2022-09-28T10:31:36.400Z,14.60
2022-09-28T10:34:05.183Z,14.80
2022-09-28T10:36:38.701Z,15.00
2022-09-28T10:39:06.404Z,14.60
2022-09-28T10:41:33.723Z,14.90
2022-09-28T10:44:06.751Z,14.80
2022-09-28T10:46:35.233Z,15.00
2022-09-28T10:49:13.060Z,15.00
2022-09-28T10:51:49.727Z,15.20
2022-09-28T10:54:21.792Z,15.40
2022-09-28T10:56:50.229Z,15.60
2022-09-28T10:59:38.883Z,15.70
2022-09-28T11:02:26.449Z,16.00
2022-09-28T11:05:02.130Z,15.90
2022-09-28T11:07:32.319Z,16.00
2022-09-28T11:10:01.338Z,15.90
2022-09-28T11:12:43.265Z,16.10
2022-09-28T11:15:23.008Z,16.00
2022-09-28T11:17:50.034Z,16.40
2022-09-28T11:20:28.449Z,17.00
2022-09-28T11:23:19.127Z,17.40
2022-09-28T11:26:01.698Z,17.60
2022-09-28T11:28:33.282Z,17.30
2022-09-28T11:31:02.246Z,17.40
2022-09-28T11:33:38.804Z,17.80
2022-09-28T11:36:15.595Z,18.30
2022-09-28T11:38:57.539Z,18.30
2022-09-28T11:41:51.466Z,18.70
2022-09-28T11:44:21.368Z,19.40
2022-09-28T11:47:29.279Z,20.30
2022-09-28T11:50:34.915Z,20.10
2022-09-28T11:53:02.329Z,19.90
2022-09-28T11:55:36.077Z,20.90
2022-09-28T11:58:17.459Z,21.70
2022-09-28T12:00:51.103Z,21.30
2022-09-28T12:03:27.140Z,20.40
2022-09-28T12:06:09.054Z,20.60
2022-09-28T12:08:42.828Z,20.80
2022-09-28T12:11:12.636Z,19.70
2022-09-28T12:13:44.698Z,18.90
2022-09-28T12:17:00.503Z,18.90
2022-09-28T12:19:36.518Z,19.20
2022-09-28T12:22:12.311Z,19.30
2022-09-28T12:24:51.724Z,18.50
2022-09-28T12:27:38.855Z,17.60
2022-09-28T12:30:15.717Z,17.00
2022-09-28T12:32:51.475Z,16.40
2022-09-28T12:35:23.139Z,16.10
2022-09-28T12:38:08.979Z,15.60
2022-09-28T12:40:52.760Z,15.70
2022-09-28T12:43:33.417Z,16.10
2022-09-28T12:46:23.994Z,16.70
2022-09-28T12:49:43.648Z,16.70
2022-09-28T12:51:52.332Z,16.70
2022-09-28T12:54:43.302Z,16.50
2022-09-28T12:57:29.006Z,16.10
2022-09-28T13:00:11.006Z,15.80
2022-09-28T13:02:54.803Z,16.20
2022-09-28T13:05:32.450Z,17.20
2022-09-28T13:08:21.131Z,19.50
2022-09-28T13:11:11.035Z,21.40
2022-09-28T13:14:01.918Z,22.40
2022-09-28T13:16:34.784Z,23.10
2022-09-28T13:19:25.639Z,23.20
2022-09-28T13:22:13.207Z,23.30
2022-09-28T13:24:44.457Z,22.60
2022-09-28T13:27:19.490Z,22.20
2022-09-28T13:29:50.344Z,21.90
2022-09-28T13:32:18.419Z,21.40
2022-09-28T13:34:50.500Z,21.10
2022-09-28T13:37:17.389Z,21.00
2022-09-28T13:39:44.299Z,20.10
2022-09-28T13:42:42.273Z,19.10
2022-09-28T13:45:21.076Z,17.90
2022-09-28T13:47:59.793Z,17.90
2022-09-28T13:50:49.185Z,18.00
2022-09-28T13:54:02.650Z,17.60
2022-09-28T13:56:37.007Z,17.40
2022-09-28T13:59:27.078Z,16.80
2022-09-28T14:02:06.890Z,16.40
2022-09-28T14:04:59.088Z,16.00
2022-09-28T14:07:47.197Z,15.60
2022-09-28T14:10:21.830Z,15.50
2022-09-28T14:12:51.431Z,15.40
2022-09-28T14:15:30.330Z,16.00
2022-09-28T14:18:23.819Z,16.30
2022-09-28T14:21:20.470Z,16.00
2022-09-28T14:24:19.717Z,15.50
2022-09-28T14:27:17.163Z,14.90
2022-09-28T14:29:44.173Z,14.40
2022-09-28T14:32:11.099Z,14.30
2022-09-28T14:34:40.489Z,14.10
2022-09-28T14:37:54.629Z,14.00
2022-09-28T14:40:49.365Z,13.80
2022-09-28T14:43:38.245Z,13.60
2022-09-28T14:46:11.377Z,13.60
2022-09-28T14:48:50.360Z,13.60
2022-09-28T14:51:26.526Z,13.40
2022-09-28T14:53:56.495Z,13.20
2022-09-28T14:56:27.004Z,13.00
2022-09-28T14:58:58.550Z,12.80
2022-09-28T15:01:26.259Z,12.80
2022-09-28T15:03:59.121Z,12.60
2022-09-28T15:06:29.041Z,12.40
2022-09-28T15:08:56.204Z,12.30
2022-09-28T15:11:25.741Z,12.20
2022-09-28T15:14:06.466Z,12.10
2022-09-28T15:16:33.956Z,12.00
2022-09-28T15:19:22.848Z,11.80
2022-09-28T15:21:51.175Z,11.70
2022-09-28T15:24:34.995Z,11.50
2022-09-28T15:27:18.951Z,11.30
2022-09-28T15:30:02.735Z,11.20
2022-09-28T15:32:32.107Z,11.10
2022-09-28T15:35:17.278Z,11.00
2022-09-28T15:37:44.976Z,10.90
2022-09-28T15:40:17.373Z,10.80
2022-09-28T15:42:47.312Z,10.70
2022-09-28T15:45:14.242Z,10.70
2022-09-28T15:47:44.971Z,10.60
2022-09-28T15:50:24.167Z,10.60
2022-09-28T15:53:03.283Z,10.50
2022-09-28T15:55:36.970Z,10.50
2022-09-28T15:58:15.110Z,10.50
2022-09-28T16:00:42.939Z,10.60
2022-09-28T16:03:09.940Z,10.60
2022-09-28T16:05:45.403Z,10.50
2022-09-28T16:08:32.972Z,10.40
2022-09-28T16:11:26.307Z,10.20
2022-09-28T16:14:28.949Z,10.10
2022-09-28T16:16:58.361Z,9.90
2022-09-28T16:19:29.626Z,9.80
2022-09-28T16:22:02.132Z,9.60
2022-09-28T16:24:37.412Z,9.50
2022-09-28T16:27:25.291Z,9.40
2022-09-28T16:30:13.638Z,9.20
2022-09-28T16:33:02.462Z,9.10
2022-09-28T16:35:35.156Z,9.00
2022-09-28T16:38:03.710Z,8.90
2022-09-28T16:40:32.295Z,8.80
2022-09-28T16:43:03.185Z,8.70
2022-09-28T16:45:30.260Z,8.60
2022-09-28T16:47:58.028Z,8.50
2022-09-28T16:50:26.007Z,8.40
2022-09-28T16:53:31.321Z,8.30
2022-09-28T16:55:59.900Z,8.20
2022-09-28T16:58:27.835Z,8.10
2022-09-28T17:00:55.676Z,8.10
2022-09-28T17:03:23.594Z,8.00
2022-09-28T17:05:51.477Z,7.90
2022-09-28T17:08:22.300Z,7.90
2022-09-28T17:11:13.895Z,7.80
2022-09-28T17:13:40.962Z,7.70
2022-09-28T17:16:14.119Z,7.70
2022-09-28T17:18:41.832Z,7.60
2022-09-28T17:21:15.977Z,7.60
2022-09-28T17:23:43.991Z,7.50
2022-09-28T17:26:34.598Z,7.50
2022-09-28T17:29:01.960Z,7.50
2022-09-28T17:31:29.955Z,7.40
2022-09-28T17:33:56.989Z,7.40
2022-09-28T17:36:25.653Z,7.40
2022-09-28T17:38:52.797Z,7.40
2022-09-28T17:41:21.197Z,7.40
2022-09-28T17:43:48.829Z,7.30
2022-09-28T17:46:28.802Z,7.30
2022-09-28T17:48:59.562Z,7.30
2022-09-28T17:51:32.397Z,7.20
2022-09-28T17:54:01.188Z,7.20
2022-09-28T17:56:32.191Z,7.10
2022-09-28T17:59:06.282Z,7.10
2022-09-28T18:01:34.788Z,7.10
2022-09-28T18:04:08.149Z,7.00
2022-09-28T18:06:37.408Z,7.00
2022-09-28T18:09:05.727Z,7.00
2022-09-28T18:11:33.831Z,7.00
2022-09-28T18:14:00.984Z,7.00
2022-09-28T18:16:30.147Z,7.00
2022-09-28T18:18:58.719Z,6.90
2022-09-28T18:21:25.720Z,6.90
2022-09-28T18:23:52.682Z,6.90
2022-09-28T18:26:19.960Z,6.90
2022-09-28T18:28:47.272Z,6.90
2022-09-28T18:31:15.811Z,6.90
2022-09-28T18:33:43.451Z,6.80
2022-09-28T18:36:10.720Z,6.80
2022-09-28T18:38:38.403Z,6.80
2022-09-28T18:41:10.552Z,6.70
2022-09-28T18:43:37.972Z,6.80
2022-09-28T18:46:09.640Z,6.80
2022-09-28T18:48:37.974Z,6.80
2022-09-28T18:51:09.611Z,6.80
2022-09-28T18:53:37.244Z,6.90
2022-09-28T18:56:13.137Z,6.90
2022-09-28T18:58:42.213Z,7.00
2022-09-28T19:01:33.829Z,7.10
2022-09-28T19:04:06.790Z,7.10
2022-09-28T19:06:34.817Z,7.20
2022-09-28T19:09:02.092Z,7.30
2022-09-28T19:11:29.291Z,7.40
2022-09-28T19:13:56.694Z,7.50
2022-09-28T19:16:28.133Z,7.60
2022-09-28T19:19:02.174Z,7.60
2022-09-28T19:21:30.236Z,7.70
2022-09-28T19:24:01.168Z,7.70
2022-09-28T19:26:29.005Z,7.80
2022-09-28T19:28:57.443Z,7.80
2022-09-28T19:31:25.607Z,7.90
2022-09-28T19:33:52.747Z,7.90
2022-09-28T19:36:23.702Z,8.00
2022-09-28T19:38:52.737Z,8.00
2022-09-28T19:41:43.382Z,8.10
2022-09-28T19:44:21.284Z,8.10
2022-09-28T19:46:48.292Z,8.20
2022-09-28T19:49:20.593Z,8.20
2022-09-28T19:52:11.484Z,8.20
2022-09-28T19:54:36.859Z,8.30
2022-09-28T19:57:08.999Z,8.30
2022-09-28T19:59:37.413Z,8.30
2022-09-28T20:02:06.711Z,8.40
2022-09-28T20:04:33.797Z,8.30
2022-09-28T20:07:00.831Z,8.40
2022-09-28T20:09:27.935Z,8.40
2022-09-28T20:11:55.121Z,8.40
2022-09-28T20:14:24.470Z,8.40
2022-09-28T20:16:53.631Z,8.40
2022-09-28T20:19:21.939Z,8.40
2022-09-28T20:21:49.656Z,8.40
2022-09-28T20:24:17.287Z,8.40
2022-09-28T20:26:45.899Z,8.30
2022-09-28T20:29:13.497Z,8.40
2022-09-28T20:31:40.624Z,8.40
2022-09-28T20:34:08.061Z,8.40
2022-09-28T20:36:35.073Z,8.40
2022-09-28T20:39:03.275Z,8.40
2022-09-28T20:41:34.789Z,8.40
2022-09-28T20:44:05.559Z,8.40
2022-09-28T20:46:34.691Z,8.40
2022-09-28T20:49:02.080Z,8.40
2022-09-28T20:51:29.122Z,8.40
2022-09-28T20:53:57.924Z,8.40
2022-09-28T20:56:29.032Z,8.40
2022-09-28T20:58:56.945Z,8.50
2022-09-28T21:01:26.094Z,8.50
2022-09-28T21:03:55.411Z,8.50
2022-09-28T21:06:24.774Z,8.50
2022-09-28T21:08:52.105Z,8.60
2022-09-28T21:11:21.685Z,8.60
2022-09-28T21:13:51.994Z,8.60
2022-09-28T21:16:19.073Z,8.50
2022-09-28T21:18:46.908Z,8.60
2022-09-28T21:21:16.059Z,8.60
2022-09-28T21:23:45.955Z,8.50
2022-09-28T21:26:24.756Z,8.60
2022-09-28T21:29:03.641Z,8.60
2022-09-28T21:31:37.043Z,8.60
2022-09-28T21:34:04.838Z,8.60
2022-09-28T21:36:32.081Z,8.60
2022-09-28T21:38:59.578Z,8.60
2022-09-28T21:41:26.778Z,8.60
2022-09-28T21:43:53.785Z,8.60
2022-09-28T21:46:20.894Z,8.50
2022-09-28T21:48:52.622Z,8.50
2022-09-28T21:51:20.206Z,8.50
2022-09-28T21:53:49.198Z,8.50
2022-09-28T21:56:16.284Z,8.60
2022-09-28T21:58:43.286Z,8.60
2022-09-28T22:01:19.508Z,8.50
2022-09-28T22:03:52.065Z,8.60
2022-09-28T22:06:20.802Z,8.60
2022-09-28T22:08:49.662Z,8.60
2022-09-28T22:11:19.709Z,8.70
2022-09-28T22:13:54.724Z,8.70
2022-09-28T22:16:23.795Z,8.70
2022-09-28T22:18:50.928Z,8.70
2022-09-28T22:21:27.412Z,8.70
2022-09-28T22:23:57.592Z,8.70
2022-09-28T22:26:25.967Z,8.70
2022-09-28T22:29:01.826Z,8.70
2022-09-28T22:31:31.722Z,8.70
2022-09-28T22:33:58.963Z,8.70
2022-09-28T22:36:26.775Z,8.70
2022-09-28T22:38:55.662Z,8.70
2022-09-28T22:41:22.806Z,8.70
2022-09-28T22:43:51.394Z,8.70
2022-09-28T22:46:20.880Z,8.60
2022-09-28T22:48:56.396Z,8.70
2022-09-28T22:51:25.295Z,8.70
2022-09-28T22:53:52.407Z,8.70
2022-09-28T22:56:19.438Z,8.70
2022-09-28T22:58:47.356Z,8.90
2022-09-28T23:01:20.990Z,8.90
2022-09-28T23:03:49.287Z,9.00
2022-09-28T23:06:19.086Z,9.00
2022-09-28T23:08:47.382Z,9.00
2022-09-28T23:11:15.295Z,9.10
2022-09-28T23:13:42.377Z,9.10
2022-09-28T23:16:12.136Z,9.10
2022-09-28T23:18:42.536Z,9.20
2022-09-28T23:21:15.503Z,9.20
2022-09-28T23:23:46.328Z,9.10
2022-09-28T23:26:16.267Z,9.20
2022-09-28T23:28:43.818Z,9.30
2022-09-28T23:31:13.484Z,9.30
2022-09-28T23:33:40.483Z,9.30
2022-09-28T23:36:08.076Z,9.30
2022-09-28T23:38:34.962Z,9.30
2022-09-28T23:41:02.014Z,9.30
2022-09-28T23:43:29.015Z,9.30
2022-09-28T23:45:55.899Z,9.40
2022-09-28T23:49:38.579Z,9.40
2022-09-28T23:52:05.509Z,9.30
2022-09-28T23:54:32.404Z,9.40
2022-09-28T23:56:59.288Z,9.40
2022-09-28T23:59:26.198Z,9.40
